createdAt,value
2019-06-20T00:00:48.247Z,2.60
2019-06-20T00:04:53.008Z,2.40
2019-06-20T00:08:57.767Z,2.50
2019-06-20T00:13:02.521Z,2.55
2019-06-20T00:17:07.311Z,2.85
2019-06-20T00:21:12.035Z,2.22
2019-06-20T00:25:17.889Z,2.35
2019-06-20T00:29:22.753Z,2.75
2019-06-20T00:33:27.451Z,2.50
2019-06-20T00:37:33.183Z,2.60
2019-06-20T00:41:38.183Z,3.35
2019-06-20T00:45:42.937Z,3.02
2019-06-20T00:49:47.606Z,3.10
2019-06-20T00:53:52.264Z,3.25
2019-06-20T00:57:56.973Z,3.27
2019-06-20T01:02:01.680Z,3.70
2019-06-20T01:06:06.796Z,3.40
2019-06-20T01:10:12.154Z,2.80
2019-06-20T01:14:16.825Z,2.70
2019-06-20T01:18:21.567Z,3.22
2019-06-20T01:22:26.424Z,2.15
2019-06-20T01:26:31.081Z,1.90
2019-06-20T01:30:35.813Z,2.00
2019-06-20T01:34:40.617Z,1.98
2019-06-20T01:38:45.388Z,2.20
2019-06-20T01:42:50.090Z,1.92
2019-06-20T01:46:54.816Z,2.05
2019-06-20T01:50:59.508Z,2.30
2019-06-20T01:55:05.347Z,2.60
2019-06-20T01:59:10.342Z,2.20
2019-06-20T02:03:15.950Z,2.50
2019-06-20T02:07:20.854Z,2.50
2019-06-20T02:11:25.662Z,2.90
2019-06-20T02:15:30.485Z,2.98
2019-06-20T02:19:35.237Z,3.12
2019-06-20T02:23:39.926Z,3.00
2019-06-20T02:27:44.884Z,3.10
2019-06-20T02:31:49.626Z,3.10
2019-06-20T02:35:54.385Z,2.70
2019-06-20T02:39:59.179Z,2.92
2019-06-20T02:44:04.150Z,3.12
2019-06-20T02:48:09.127Z,3.30
2019-06-20T02:52:14.236Z,3.30
2019-06-20T02:56:18.949Z,3.37
2019-06-20T03:00:35.412Z,3.37
2019-06-20T03:04:40.149Z,3.30
2019-06-20T03:08:44.849Z,3.65
2019-06-20T03:12:49.521Z,3.30
2019-06-20T03:16:54.305Z,3.27
2019-06-20T03:20:59.102Z,3.52
2019-06-20T03:25:04.149Z,3.58
2019-06-20T03:29:08.994Z,3.45
2019-06-20T03:33:13.789Z,3.35
2019-06-20T03:37:18.547Z,3.40
2019-06-20T03:41:23.317Z,3.55
2019-06-20T03:45:29.135Z,3.80
2019-06-20T03:49:33.856Z,3.50
2019-06-20T03:53:38.523Z,3.50
2019-06-20T03:57:43.226Z,4.03
2019-06-20T04:01:49.237Z,3.40
2019-06-20T04:05:55.401Z,3.95
2019-06-20T04:10:01.080Z,3.70
2019-06-20T04:14:06.938Z,3.70
2019-06-20T04:18:11.649Z,3.70
2019-06-20T04:22:16.739Z,4.05
2019-06-20T04:26:21.438Z,3.40
2019-06-20T04:30:26.277Z,3.47
2019-06-20T04:34:31.032Z,3.58
2019-06-20T04:38:35.751Z,3.55
2019-06-20T04:42:40.409Z,3.40
2019-06-20T04:46:56.614Z,3.40
2019-06-20T04:51:01.427Z,3.52
2019-06-20T04:55:06.489Z,3.80
2019-06-20T04:59:12.312Z,4.25
2019-06-20T05:03:18.336Z,3.60
2019-06-20T05:07:23.008Z,4.35
2019-06-20T05:11:27.719Z,3.27
2019-06-20T05:15:32.579Z,3.12
2019-06-20T05:19:37.301Z,2.85
2019-06-20T05:23:42.058Z,3.35
2019-06-20T05:27:46.762Z,3.00
2019-06-20T05:31:51.448Z,3.42
2019-06-20T05:35:56.130Z,3.33
2019-06-20T05:40:07.770Z,3.10
2019-06-20T05:44:13.764Z,3.83
2019-06-20T05:48:18.884Z,2.90
2019-06-20T05:52:23.648Z,3.02
2019-06-20T05:56:28.359Z,3.42
2019-06-20T06:00:33.429Z,3.22
2019-06-20T06:04:38.175Z,3.40
2019-06-20T06:08:42.870Z,4.00
2019-06-20T06:12:47.572Z,4.00
2019-06-20T06:16:52.346Z,3.80
2019-06-20T06:20:57.105Z,3.90
2019-06-20T06:25:01.802Z,4.33
2019-06-20T06:29:06.604Z,3.92
2019-06-20T06:33:11.295Z,4.47
2019-06-20T06:37:16.038Z,3.75
2019-06-20T06:41:20.913Z,3.90
2019-06-20T06:45:25.998Z,4.85
2019-06-20T06:49:30.781Z,4.60
2019-06-20T06:53:35.469Z,4.20
2019-06-20T06:57:40.268Z,4.53
2019-06-20T07:01:45.111Z,4.85
2019-06-20T07:05:49.793Z,4.53
2019-06-20T07:09:54.937Z,4.20
2019-06-20T07:13:59.697Z,4.15
2019-06-20T07:18:04.717Z,4.55
2019-06-20T07:22:09.450Z,5.03
2019-06-20T07:26:14.143Z,3.85
2019-06-20T07:30:20.709Z,3.77
2019-06-20T07:34:26.598Z,3.40
2019-06-20T07:38:31.369Z,3.35
2019-06-20T07:42:37.455Z,3.20
2019-06-20T07:46:42.775Z,3.47
2019-06-20T07:50:47.749Z,3.77
2019-06-20T07:54:52.630Z,3.90
2019-06-20T07:58:57.475Z,3.50
2019-06-20T08:03:02.322Z,4.15
2019-06-20T08:07:07.014Z,3.65
2019-06-20T08:11:11.831Z,3.90
2019-06-20T08:15:17.186Z,3.80
2019-06-20T08:19:23.976Z,3.72
2019-06-20T08:23:28.825Z,3.83
2019-06-20T08:27:54.105Z,3.85
2019-06-20T08:31:59.745Z,3.80
2019-06-20T08:36:06.711Z,3.77
2019-06-20T08:40:11.726Z,4.25
2019-06-20T08:44:16.509Z,4.20
2019-06-20T08:48:21.414Z,4.20
2019-06-20T08:52:26.531Z,3.37
2019-06-20T08:56:32.835Z,3.05
2019-06-20T09:00:38.581Z,3.08
2019-06-20T09:04:43.477Z,3.02
2019-06-20T09:08:48.276Z,3.42
2019-06-20T09:12:54.071Z,4.40
2019-06-20T09:17:00.675Z,4.05
2019-06-20T09:21:05.613Z,3.45
2019-06-20T09:25:11.028Z,3.50
2019-06-20T09:29:15.858Z,3.85
2019-06-20T09:33:20.707Z,3.27
2019-06-20T09:37:25.359Z,3.50
2019-06-20T09:41:30.339Z,3.62
2019-06-20T09:45:35.403Z,3.20
2019-06-20T09:49:40.265Z,3.47
2019-06-20T09:53:45.197Z,3.37
2019-06-20T09:57:50.810Z,3.22
2019-06-20T10:01:58.547Z,3.17
2019-06-20T10:06:12.740Z,3.65
2019-06-20T10:10:12.900Z,3.17
2019-06-20T10:14:18.235Z,2.90
2019-06-20T10:18:23.211Z,3.47
2019-06-20T10:22:27.985Z,2.65
2019-06-20T10:26:32.783Z,2.70
2019-06-20T10:30:37.487Z,3.02
2019-06-20T10:34:42.374Z,2.80
2019-06-20T10:38:48.021Z,2.72
2019-06-20T10:42:53.235Z,2.80
2019-06-20T10:46:58.005Z,2.65
2019-06-20T10:51:20.821Z,2.72
2019-06-20T10:55:25.756Z,2.40
2019-06-20T10:59:30.732Z,2.70
2019-06-20T11:03:35.443Z,3.60
2019-06-20T11:07:40.753Z,3.10
2019-06-20T11:11:47.088Z,2.60
2019-06-20T11:15:51.917Z,2.40
2019-06-20T11:19:57.201Z,2.50
2019-06-20T11:24:01.877Z,2.02
2019-06-20T11:28:06.598Z,2.40
2019-06-20T11:32:13.619Z,2.08
2019-06-20T11:36:18.318Z,3.87
2019-06-20T11:40:23.327Z,2.60
2019-06-20T11:44:31.908Z,2.70
2019-06-20T11:48:36.945Z,3.40
2019-06-20T11:52:45.291Z,2.20
2019-06-20T11:56:48.291Z,2.10
2019-06-20T12:01:03.230Z,2.50
2019-06-20T12:04:59.681Z,2.42
2019-06-20T12:09:05.971Z,2.75
2019-06-20T12:13:11.104Z,3.40
2019-06-20T12:17:15.821Z,2.40
2019-06-20T12:21:20.462Z,2.45
2019-06-20T12:25:27.129Z,1.95
2019-06-20T12:29:32.891Z,2.30
2019-06-20T12:33:38.229Z,2.50
2019-06-20T12:37:45.218Z,1.82
2019-06-20T12:41:50.316Z,1.77
2019-06-20T12:45:55.037Z,2.20
2019-06-20T12:49:59.739Z,2.37
2019-06-20T12:54:05.393Z,1.98
2019-06-20T12:58:10.116Z,1.90
2019-06-20T13:02:14.972Z,1.85
2019-06-20T13:06:19.879Z,2.02
2019-06-20T13:10:25.657Z,1.90
2019-06-20T13:14:30.415Z,2.00
2019-06-20T13:18:35.483Z,2.00
2019-06-20T13:22:41.378Z,2.08
2019-06-20T13:26:46.478Z,2.17
2019-06-20T13:30:52.227Z,2.85
2019-06-20T13:34:57.139Z,2.08
2019-06-20T13:39:01.859Z,2.83
2019-06-20T13:43:08.122Z,2.80
2019-06-20T13:47:12.952Z,2.30
2019-06-20T13:51:17.682Z,2.62
2019-06-20T13:55:22.484Z,2.98
2019-06-20T13:59:27.249Z,2.62
2019-06-20T14:03:31.907Z,2.72
2019-06-20T14:07:36.578Z,3.05
2019-06-20T14:11:43.214Z,2.98
2019-06-20T14:15:48.533Z,3.62
2019-06-20T14:19:56.521Z,3.25
2019-06-20T14:24:01.389Z,3.12
2019-06-20T14:28:06.126Z,3.37
2019-06-20T14:32:21.745Z,3.08
2019-06-20T14:36:17.365Z,2.87
2019-06-20T14:40:22.249Z,3.47
2019-06-20T14:44:26.988Z,3.17
2019-06-20T14:48:31.648Z,2.98
2019-06-20T14:52:36.297Z,3.80
2019-06-20T14:56:44.524Z,3.95
2019-06-20T15:00:49.770Z,4.42
2019-06-20T15:04:54.525Z,4.37
2019-06-20T15:09:04.751Z,4.30
2019-06-20T15:13:07.220Z,4.25
2019-06-20T15:17:12.137Z,3.62
2019-06-20T15:21:16.936Z,4.60
2019-06-20T15:25:22.217Z,3.50
2019-06-20T15:29:26.958Z,3.87
2019-06-20T15:33:31.685Z,2.90
2019-06-20T15:37:36.421Z,3.27
2019-06-20T15:41:41.566Z,3.20
2019-06-20T15:45:48.346Z,3.15
2019-06-20T15:49:52.620Z,3.00
2019-06-20T15:53:57.288Z,3.05
2019-06-20T15:58:02.125Z,2.50
2019-06-20T16:02:07.796Z,3.00
2019-06-20T16:06:12.470Z,3.00
2019-06-20T16:10:17.851Z,2.72
2019-06-20T16:14:22.538Z,2.55
2019-06-20T16:18:27.306Z,3.22
2019-06-20T16:22:31.993Z,2.70
2019-06-20T16:26:36.838Z,2.85
2019-06-20T16:30:41.482Z,4.08
2019-06-20T16:34:46.274Z,3.00
2019-06-20T16:38:50.934Z,3.08
2019-06-20T16:42:55.745Z,2.30
2019-06-20T16:47:00.452Z,2.65
2019-06-20T16:51:05.318Z,2.85
2019-06-20T16:55:10.110Z,3.02
2019-06-20T16:59:14.839Z,2.70
2019-06-20T17:03:19.615Z,3.42
2019-06-20T17:07:24.339Z,3.10
2019-06-20T17:11:29.043Z,2.98
2019-06-20T17:15:33.815Z,2.92
2019-06-20T17:19:42.082Z,2.67
2019-06-20T17:23:45.149Z,3.30
2019-06-20T17:27:49.892Z,4.75
2019-06-20T17:31:57.373Z,3.08
2019-06-20T17:36:16.985Z,3.12
2019-06-20T17:40:09.334Z,3.10
2019-06-20T17:44:14.427Z,3.10
2019-06-20T17:48:19.121Z,3.30
2019-06-20T17:52:23.942Z,3.10
2019-06-20T17:56:28.795Z,2.80
2019-06-20T18:00:35.051Z,2.75
2019-06-20T18:04:40.255Z,3.27
2019-06-20T18:08:45.177Z,3.17
2019-06-20T18:12:50.021Z,2.77
2019-06-20T18:16:55.583Z,3.02
2019-06-20T18:21:00.328Z,2.92
2019-06-20T18:25:06.904Z,2.92
2019-06-20T18:29:12.082Z,3.47
2019-06-20T18:33:18.455Z,3.80
2019-06-20T18:37:31.487Z,4.00
2019-06-20T18:41:30.138Z,3.25
2019-06-20T18:45:34.961Z,2.90
2019-06-20T18:49:39.800Z,3.95
2019-06-20T18:53:44.509Z,3.42
2019-06-20T18:57:49.404Z,3.37
2019-06-20T19:01:54.247Z,3.20
2019-06-20T19:05:59.423Z,3.92
2019-06-20T19:10:05.214Z,5.00
2019-06-20T19:14:12.575Z,4.55
2019-06-20T19:18:16.724Z,6.60
2019-06-20T19:22:21.624Z,4.72
2019-06-20T19:26:26.475Z,4.10
2019-06-20T19:30:39.175Z,3.92
2019-06-20T19:34:43.905Z,6.57
2019-06-20T19:38:48.668Z,5.30
2019-06-20T19:42:53.373Z,5.10
2019-06-20T19:46:58.501Z,4.05
2019-06-20T19:51:03.335Z,4.95
2019-06-20T19:55:08.618Z,4.87
2019-06-20T19:59:14.574Z,5.20
2019-06-20T20:03:20.091Z,4.80
2019-06-20T20:07:24.883Z,5.20
2019-06-20T20:11:29.879Z,5.85
2019-06-20T20:15:35.535Z,5.33
2019-06-20T20:19:40.549Z,4.95
2019-06-20T20:23:45.778Z,4.50
2019-06-20T20:33:02.226Z,5.90
2019-06-20T20:37:07.497Z,7.70
2019-06-20T20:41:13.275Z,5.62
2019-06-20T20:45:19.896Z,6.00
2019-06-20T20:49:27.019Z,6.20
2019-06-20T20:53:32.595Z,8.95
2019-06-20T20:57:38.937Z,14.70
2019-06-20T21:01:44.284Z,15.85
2019-06-20T21:05:51.723Z,15.90
2019-06-20T21:09:56.925Z,7.30
2019-06-20T21:14:01.932Z,10.93
2019-06-20T21:18:06.850Z,7.70
2019-06-20T21:22:11.649Z,14.20
2019-06-20T21:26:21.137Z,9.98
2019-06-20T21:30:26.646Z,12.63
2019-06-20T21:34:31.897Z,9.80
2019-06-20T21:38:36.729Z,9.35
2019-06-20T21:42:41.771Z,8.18
2019-06-20T21:46:47.747Z,7.58
2019-06-20T21:50:52.925Z,6.37
2019-06-20T21:54:57.919Z,6.28
2019-06-20T21:59:02.910Z,6.55
2019-06-20T22:03:09.283Z,6.72
2019-06-20T22:07:15.303Z,7.95
2019-06-20T22:11:20.224Z,8.65
2019-06-20T22:15:25.202Z,14.87
2019-06-20T22:19:31.755Z,16.32
2019-06-20T22:23:36.571Z,17.80
2019-06-20T22:27:41.605Z,14.35
2019-06-20T22:31:46.419Z,14.03
2019-06-20T22:35:51.179Z,13.93
2019-06-20T22:39:56.424Z,18.23
2019-06-20T22:44:01.275Z,17.52
2019-06-20T22:48:06.514Z,19.27
2019-06-20T22:52:11.390Z,18.48
2019-06-20T22:56:16.196Z,18.62
2019-06-20T23:00:21.258Z,16.40
2019-06-20T23:04:26.629Z,19.70
2019-06-20T23:08:34.454Z,20.27
2019-06-20T23:12:39.420Z,23.27
2019-06-20T23:16:44.358Z,22.55
2019-06-20T23:21:03.979Z,24.55
2019-06-20T23:24:56.183Z,22.10
2019-06-20T23:29:19.795Z,23.92
2019-06-20T23:33:26.974Z,28.73
2019-06-20T23:37:32.871Z,23.57
2019-06-20T23:41:37.522Z,20.27
2019-06-20T23:45:42.171Z,24.15
2019-06-20T23:49:46.848Z,28.02
2019-06-20T23:53:51.612Z,15.08
2019-06-20T23:57:56.386Z,20.00
